createdAt,value
2019-02-25T00:01:02.091Z,9.20
2019-02-25T00:03:35.524Z,9.87
2019-02-25T00:06:08.936Z,8.87
2019-02-25T00:08:42.380Z,9.17
2019-02-25T00:11:15.808Z,8.60
2019-02-25T00:13:49.232Z,9.50
2019-02-25T00:16:22.652Z,8.77
2019-02-25T00:18:56.092Z,8.80
2019-02-25T00:21:29.716Z,8.13
2019-02-25T00:24:03.152Z,9.43
2019-02-25T00:26:36.572Z,9.30
2019-02-25T00:29:10.000Z,8.80
2019-02-25T00:31:43.420Z,8.37
2019-02-25T00:34:16.859Z,9.13
2019-02-25T00:36:50.286Z,9.17
2019-02-25T00:39:23.718Z,9.27
2019-02-25T00:41:57.132Z,8.00
2019-02-25T00:44:30.564Z,8.47
2019-02-25T00:47:04.057Z,8.57
2019-02-25T00:49:37.492Z,8.47
2019-02-25T00:52:10.916Z,7.73
2019-02-25T00:54:44.352Z,8.27
2019-02-25T00:57:17.779Z,8.30
2019-02-25T00:59:51.220Z,8.30
2019-02-25T01:02:24.642Z,8.07
2019-02-25T01:04:58.072Z,7.33
2019-02-25T01:07:31.544Z,8.03
2019-02-25T01:10:10.440Z,8.10
2019-02-25T01:12:45.500Z,7.50
2019-02-25T01:15:19.012Z,7.77
2019-02-25T01:17:52.436Z,7.70
2019-02-25T01:20:25.874Z,7.30
2019-02-25T01:22:59.312Z,8.27
2019-02-25T01:25:32.752Z,8.13
2019-02-25T01:28:06.189Z,7.50
2019-02-25T01:30:39.620Z,6.87
2019-02-25T01:33:13.040Z,8.00
2019-02-25T01:35:46.472Z,8.20
2019-02-25T01:38:19.889Z,8.03
2019-02-25T01:40:53.312Z,8.10
2019-02-25T01:43:26.732Z,7.93
2019-02-25T01:46:01.016Z,7.80
2019-02-25T01:48:34.439Z,7.40
2019-02-25T01:51:07.880Z,7.20
2019-02-25T01:53:41.297Z,7.67
2019-02-25T01:56:14.728Z,6.90
2019-02-25T01:58:48.159Z,6.97
2019-02-25T02:01:21.596Z,7.07
2019-02-25T02:03:55.012Z,7.37
2019-02-25T02:06:28.460Z,8.00
2019-02-25T02:09:01.879Z,7.53
2019-02-25T02:11:35.320Z,7.73
2019-02-25T02:14:08.756Z,7.70
2019-02-25T02:16:42.188Z,7.17
2019-02-25T02:19:15.660Z,7.50
2019-02-25T02:21:49.089Z,7.27
2019-02-25T02:24:22.530Z,6.80
2019-02-25T02:26:56.016Z,7.30
2019-02-25T02:29:29.436Z,7.37
2019-02-25T02:32:02.878Z,7.93
2019-02-25T02:34:36.298Z,6.97
2019-02-25T02:37:09.728Z,6.87
2019-02-25T02:39:43.149Z,7.30
2019-02-25T02:42:20.989Z,7.20
2019-02-25T02:44:55.195Z,6.87
2019-02-25T02:47:32.020Z,7.53
2019-02-25T02:50:08.508Z,7.13
2019-02-25T02:52:41.942Z,7.83
2019-02-25T02:55:15.376Z,8.07
2019-02-25T02:57:48.808Z,8.23
2019-02-25T03:00:22.300Z,7.80
2019-02-25T03:02:55.864Z,8.00
2019-02-25T03:05:29.284Z,8.10
2019-02-25T03:08:02.720Z,7.90
2019-02-25T03:10:36.145Z,8.40
2019-02-25T03:13:09.578Z,8.40
2019-02-25T03:15:42.992Z,8.10
2019-02-25T03:18:16.422Z,7.87
2019-02-25T03:20:49.845Z,8.43
2019-02-25T03:23:23.271Z,7.70
2019-02-25T03:25:56.702Z,8.17
2019-02-25T03:28:31.672Z,8.30
2019-02-25T03:31:05.104Z,7.50
2019-02-25T03:33:38.530Z,7.93
2019-02-25T03:36:12.028Z,8.07
2019-02-25T03:38:45.464Z,7.67
2019-02-25T03:41:18.885Z,7.80
2019-02-25T03:43:52.337Z,7.70
2019-02-25T03:46:25.745Z,7.07
2019-02-25T03:48:59.176Z,7.23
2019-02-25T03:51:32.600Z,7.90
2019-02-25T03:54:06.031Z,7.37
2019-02-25T03:56:39.444Z,7.70
2019-02-25T03:59:12.952Z,7.77
2019-02-25T04:01:46.452Z,7.80
2019-02-25T04:04:20.074Z,7.63
2019-02-25T04:06:53.492Z,7.20
2019-02-25T04:09:26.931Z,7.77
2019-02-25T04:12:00.352Z,7.90
2019-02-25T04:14:33.798Z,8.00
2019-02-25T04:17:07.221Z,8.30
2019-02-25T04:19:40.660Z,7.83
2019-02-25T04:22:14.084Z,8.77
2019-02-25T04:24:47.511Z,8.37
2019-02-25T04:27:20.937Z,8.50
2019-02-25T04:29:54.364Z,8.53
2019-02-25T04:32:27.789Z,9.37
2019-02-25T04:35:01.222Z,8.73
2019-02-25T04:37:34.642Z,8.47
2019-02-25T04:40:10.922Z,8.80
2019-02-25T04:42:44.340Z,8.80
2019-02-25T04:45:21.528Z,8.80
2019-02-25T04:47:54.950Z,9.17
2019-02-25T04:50:28.383Z,9.07
2019-02-25T04:53:01.820Z,9.13
2019-02-25T04:55:35.254Z,8.50
2019-02-25T04:58:08.677Z,8.53
2019-02-25T05:00:42.121Z,8.70
2019-02-25T05:03:15.540Z,8.13
2019-02-25T05:05:48.971Z,8.37
2019-02-25T05:08:22.402Z,8.30
2019-02-25T05:10:55.832Z,7.97
2019-02-25T05:13:29.248Z,7.80
2019-02-25T05:16:02.688Z,8.00
2019-02-25T05:18:36.106Z,7.73
2019-02-25T05:21:09.536Z,7.40
2019-02-25T05:23:42.952Z,8.47
2019-02-25T05:26:16.384Z,8.70
2019-02-25T05:28:49.809Z,8.07
2019-02-25T05:31:23.249Z,8.17
2019-02-25T05:33:56.652Z,8.13
2019-02-25T05:36:30.124Z,8.30
2019-02-25T05:39:04.917Z,7.87
2019-02-25T05:41:38.348Z,8.63
2019-02-25T05:44:11.807Z,8.43
2019-02-25T05:46:57.791Z,8.53
2019-02-25T05:49:31.211Z,9.13
2019-02-25T05:52:04.642Z,9.07
2019-02-25T05:54:38.064Z,9.17
2019-02-25T05:57:11.512Z,8.67
2019-02-25T05:59:44.945Z,9.10
2019-02-25T06:02:18.452Z,8.93
2019-02-25T06:04:51.878Z,9.07
2019-02-25T06:07:25.306Z,9.17
2019-02-25T06:09:58.720Z,9.00
2019-02-25T06:12:32.165Z,9.33
2019-02-25T06:15:08.895Z,10.00
2019-02-25T06:17:42.345Z,10.07
2019-02-25T06:20:16.713Z,10.37
2019-02-25T06:22:50.157Z,10.00
2019-02-25T06:25:42.913Z,14.30
2019-02-25T06:28:16.383Z,10.90
2019-02-25T06:30:49.804Z,10.10
2019-02-25T06:33:23.234Z,9.90
2019-02-25T06:35:56.655Z,10.27
2019-02-25T06:38:30.097Z,10.47
2019-02-25T06:41:03.528Z,10.50
2019-02-25T06:43:37.164Z,9.93
2019-02-25T06:46:10.595Z,10.90
2019-02-25T06:48:44.020Z,10.67
2019-02-25T06:51:17.457Z,11.30
2019-02-25T06:53:50.897Z,11.87
2019-02-25T06:56:24.321Z,11.33
2019-02-25T06:58:57.760Z,10.57
2019-02-25T07:01:31.185Z,10.80
2019-02-25T07:04:09.163Z,10.70
2019-02-25T07:06:47.020Z,10.97
2019-02-25T07:09:22.105Z,11.43
2019-02-25T07:11:59.726Z,11.97
2019-02-25T07:14:40.300Z,12.50
2019-02-25T07:17:31.796Z,11.60
2019-02-25T07:20:20.302Z,11.77
2019-02-25T07:22:58.112Z,10.97
2019-02-25T07:25:33.232Z,11.67
2019-02-25T07:28:20.330Z,10.77
2019-02-25T07:31:10.593Z,10.87
2019-02-25T07:33:45.653Z,10.47
2019-02-25T07:36:23.441Z,10.43
2019-02-25T07:39:01.316Z,10.60
2019-02-25T07:41:39.505Z,11.07
2019-02-25T07:44:23.410Z,11.33
2019-02-25T07:47:01.249Z,11.13
2019-02-25T07:49:51.324Z,11.23
2019-02-25T07:52:26.396Z,10.97
2019-02-25T07:55:07.467Z,10.23
2019-02-25T07:57:48.436Z,10.30
2019-02-25T08:00:35.380Z,11.37
2019-02-25T08:03:16.328Z,9.93
2019-02-25T08:05:54.184Z,10.13
2019-02-25T08:08:32.161Z,10.53
2019-02-25T08:11:07.232Z,10.50
2019-02-25T08:13:58.512Z,10.50
2019-02-25T08:16:36.321Z,10.37
2019-02-25T08:19:17.110Z,10.13
2019-02-25T08:22:07.186Z,10.60
2019-02-25T08:24:54.136Z,10.13
2019-02-25T08:27:34.929Z,9.90
2019-02-25T08:30:12.950Z,10.23
2019-02-25T08:32:48.027Z,10.60
2019-02-25T08:35:49.900Z,10.83
2019-02-25T08:38:42.757Z,10.00
2019-02-25T08:41:18.249Z,11.17
2019-02-25T08:44:05.152Z,10.77
2019-02-25T08:46:40.226Z,10.30
2019-02-25T08:49:15.304Z,10.93
2019-02-25T08:51:48.728Z,11.63
2019-02-25T08:54:22.172Z,11.00
2019-02-25T08:56:55.609Z,11.10
2019-02-25T08:59:29.124Z,10.80
2019-02-25T09:02:02.545Z,11.77
2019-02-25T09:04:35.988Z,11.20
2019-02-25T09:07:09.409Z,11.47
2019-02-25T09:09:42.851Z,11.07
2019-02-25T09:12:16.276Z,11.20
2019-02-25T09:14:49.705Z,11.37
2019-02-25T09:17:23.140Z,11.10
2019-02-25T09:19:56.580Z,11.60
2019-02-25T09:22:30.002Z,11.57
2019-02-25T09:25:03.908Z,11.53
2019-02-25T09:27:37.330Z,10.87
2019-02-25T09:30:20.681Z,11.00
2019-02-25T09:32:54.104Z,11.80
2019-02-25T09:35:27.600Z,11.17
2019-02-25T09:38:01.016Z,11.47
2019-02-25T09:40:34.457Z,11.20
2019-02-25T09:43:07.877Z,11.50
2019-02-25T09:45:41.308Z,12.07
2019-02-25T09:48:14.744Z,11.40
2019-02-25T09:50:50.059Z,11.37
2019-02-25T09:53:23.436Z,11.00
2019-02-25T09:55:56.868Z,10.87
2019-02-25T09:58:30.294Z,11.10
2019-02-25T10:01:04.780Z,10.80
2019-02-25T10:03:38.204Z,11.30
2019-02-25T10:06:12.978Z,10.57
2019-02-25T10:08:46.639Z,10.57
2019-02-25T10:11:20.139Z,10.23
2019-02-25T10:13:53.566Z,10.60
2019-02-25T10:16:27.021Z,11.17
2019-02-25T10:19:00.445Z,11.60
2019-02-25T10:21:33.944Z,11.93
2019-02-25T10:24:07.352Z,11.20
2019-02-25T10:26:40.784Z,11.83
2019-02-25T10:29:33.552Z,10.70
2019-02-25T10:32:06.992Z,11.20
2019-02-25T10:34:40.416Z,11.20
2019-02-25T10:37:15.600Z,10.57
2019-02-25T10:39:49.580Z,10.03
2019-02-25T10:42:24.172Z,10.17
2019-02-25T10:44:57.592Z,10.30
2019-02-25T10:47:31.096Z,10.57
2019-02-25T10:50:07.430Z,9.77
2019-02-25T10:52:42.853Z,10.67
2019-02-25T10:55:35.732Z,9.93
2019-02-25T10:58:11.013Z,10.77
2019-02-25T11:00:45.948Z,10.90
2019-02-25T11:03:21.633Z,11.30
2019-02-25T11:05:56.370Z,11.27
2019-02-25T11:08:30.676Z,11.67
2019-02-25T11:11:22.657Z,10.83
2019-02-25T11:13:55.961Z,10.90
2019-02-25T11:16:29.400Z,11.17
2019-02-25T11:19:02.905Z,11.23
2019-02-25T11:21:37.680Z,10.43
2019-02-25T11:24:11.502Z,10.00
2019-02-25T11:26:44.953Z,10.47
2019-02-25T11:29:18.391Z,10.20
2019-02-25T11:31:53.483Z,10.70
2019-02-25T11:34:26.983Z,11.00
2019-02-25T11:37:00.438Z,10.73
2019-02-25T11:39:35.059Z,10.40
2019-02-25T11:42:10.807Z,10.80
2019-02-25T11:44:44.175Z,10.60
2019-02-25T11:47:17.608Z,10.80
2019-02-25T11:49:51.058Z,10.20
2019-02-25T11:52:24.557Z,9.73
2019-02-25T11:54:57.988Z,9.60
2019-02-25T11:57:31.428Z,9.53
2019-02-25T12:00:10.485Z,10.03
2019-02-25T12:02:43.930Z,10.57
2019-02-25T12:05:18.688Z,9.47
2019-02-25T12:07:52.140Z,9.53
2019-02-25T12:10:25.621Z,9.77
2019-02-25T12:12:59.052Z,9.47
2019-02-25T12:15:32.476Z,9.30
2019-02-25T12:18:05.918Z,9.10
2019-02-25T12:20:39.415Z,9.23
2019-02-25T12:23:12.860Z,9.37
2019-02-25T12:25:46.305Z,8.40
2019-02-25T12:28:19.740Z,8.93
2019-02-25T12:30:53.161Z,8.90
2019-02-25T12:33:26.608Z,8.77
2019-02-25T12:36:00.029Z,8.70
2019-02-25T12:38:33.460Z,8.37
2019-02-25T12:41:06.894Z,8.43
2019-02-25T12:43:40.340Z,7.97
2019-02-25T12:46:15.941Z,8.10
2019-02-25T12:48:49.376Z,8.43
2019-02-25T12:51:22.804Z,8.77
2019-02-25T12:53:56.269Z,8.67
2019-02-25T12:56:29.689Z,8.13
2019-02-25T12:59:05.139Z,8.37
2019-02-25T13:01:38.277Z,8.00
2019-02-25T13:04:11.708Z,8.13
2019-02-25T13:06:45.145Z,8.57
2019-02-25T13:09:18.592Z,8.20
2019-02-25T13:11:52.021Z,8.23
2019-02-25T13:14:25.495Z,8.63
2019-02-25T13:16:58.968Z,9.00
2019-02-25T13:19:32.496Z,8.70
2019-02-25T13:22:05.916Z,8.13
2019-02-25T13:24:39.584Z,7.97
2019-02-25T13:27:13.831Z,8.10
2019-02-25T13:29:49.535Z,8.03
2019-02-25T13:32:22.744Z,8.70
2019-02-25T13:34:56.656Z,8.17
2019-02-25T13:37:30.077Z,8.10
2019-02-25T13:40:04.684Z,8.23
2019-02-25T13:42:38.181Z,7.30
2019-02-25T13:45:16.493Z,7.43
2019-02-25T13:47:49.988Z,6.87
2019-02-25T13:50:23.511Z,7.37
2019-02-25T13:52:57.026Z,7.20
2019-02-25T13:55:30.537Z,6.70
2019-02-25T13:58:04.373Z,7.00
2019-02-25T14:00:38.229Z,7.40
2019-02-25T14:03:11.729Z,7.60
2019-02-25T14:05:45.245Z,7.47
2019-02-25T14:08:18.698Z,8.07
2019-02-25T14:10:52.337Z,7.80
2019-02-25T14:13:25.837Z,7.50
2019-02-25T14:15:59.404Z,7.47
2019-02-25T14:18:32.976Z,7.10
2019-02-25T14:21:06.834Z,7.43
2019-02-25T14:23:40.610Z,7.87
2019-02-25T14:26:14.224Z,7.57
2019-02-25T14:28:48.697Z,7.03
2019-02-25T14:31:22.390Z,7.40
2019-02-25T14:33:55.870Z,7.50
2019-02-25T14:36:29.381Z,7.47
2019-02-25T14:39:04.465Z,6.70
2019-02-25T14:41:38.248Z,7.27
2019-02-25T14:44:11.684Z,7.40
2019-02-25T14:46:45.134Z,6.80
2019-02-25T14:49:18.633Z,6.40
2019-02-25T14:51:52.144Z,7.00
2019-02-25T14:54:26.743Z,7.03
2019-02-25T14:57:00.828Z,7.77
2019-02-25T14:59:34.324Z,7.40
2019-02-25T15:02:08.707Z,7.93
2019-02-25T15:04:43.939Z,7.47
2019-02-25T15:07:17.700Z,9.43
2019-02-25T15:09:51.189Z,7.73
2019-02-25T15:12:25.567Z,6.60
2019-02-25T15:15:02.017Z,7.97
2019-02-25T15:17:35.036Z,7.30
2019-02-25T15:20:18.600Z,7.17
2019-02-25T15:22:52.813Z,7.40
2019-02-25T15:25:29.241Z,7.30
2019-02-25T15:28:01.497Z,7.30
2019-02-25T15:30:35.131Z,7.70
2019-02-25T15:33:08.645Z,6.60
2019-02-25T15:35:43.767Z,7.70
2019-02-25T15:38:17.437Z,10.97
2019-02-25T15:40:50.868Z,17.30
2019-02-25T15:43:26.358Z,19.87
2019-02-25T15:46:01.529Z,17.43
2019-02-25T15:48:36.937Z,15.07
2019-02-25T15:51:10.193Z,14.40
2019-02-25T15:53:46.181Z,13.43
2019-02-25T15:56:18.867Z,11.73
2019-02-25T15:58:52.396Z,10.70
2019-02-25T16:01:25.901Z,9.47
2019-02-25T16:04:02.239Z,9.70
2019-02-25T16:06:35.625Z,10.77
2019-02-25T16:09:11.925Z,9.07
2019-02-25T16:11:46.007Z,11.63
2019-02-25T16:14:21.817Z,10.10
2019-02-25T16:16:55.702Z,11.00
2019-02-25T16:19:41.175Z,10.47
2019-02-25T16:22:07.371Z,9.77
2019-02-25T16:24:39.664Z,8.27
2019-02-25T16:27:13.160Z,8.57
2019-02-25T16:29:46.636Z,8.17
2019-02-25T16:32:21.491Z,7.43
2019-02-25T16:34:55.968Z,8.43
2019-02-25T16:37:31.630Z,7.60
2019-02-25T16:40:10.425Z,7.93
2019-02-25T16:42:43.839Z,6.93
2019-02-25T16:45:22.661Z,8.40
2019-02-25T16:47:56.193Z,7.00
2019-02-25T16:50:30.152Z,6.67
2019-02-25T16:53:06.069Z,7.37
2019-02-25T16:55:40.472Z,8.57
2019-02-25T16:58:14.018Z,8.70
2019-02-25T17:00:47.877Z,8.40
2019-02-25T17:03:21.518Z,7.50
2019-02-25T17:05:55.043Z,7.83
2019-02-25T17:08:30.348Z,7.30
2019-02-25T17:11:03.705Z,7.03
2019-02-25T17:13:39.301Z,7.80
2019-02-25T17:16:18.140Z,10.07
2019-02-25T17:18:47.617Z,10.80
2019-02-25T17:21:21.138Z,10.20
2019-02-25T17:23:56.243Z,9.83
2019-02-25T17:26:29.864Z,9.10
2019-02-25T17:29:03.428Z,10.63
2019-02-25T17:31:38.592Z,10.70
2019-02-25T17:34:12.569Z,10.80
2019-02-25T17:36:49.528Z,11.00
2019-02-25T17:39:22.334Z,11.57
2019-02-25T17:41:57.281Z,11.63
2019-02-25T17:44:32.122Z,12.93
2019-02-25T17:47:06.718Z,11.73
2019-02-25T17:49:42.869Z,13.13
2019-02-25T17:52:18.428Z,13.07
2019-02-25T17:54:51.709Z,13.77
2019-02-25T17:57:26.124Z,13.67
2019-02-25T18:00:00.768Z,14.03
2019-02-25T18:02:36.082Z,14.43
2019-02-25T18:05:11.606Z,14.10
2019-02-25T18:07:46.533Z,13.47
2019-02-25T18:10:20.934Z,13.97
2019-02-25T18:12:56.917Z,14.23
2019-02-25T18:15:34.306Z,14.33
2019-02-25T18:18:11.711Z,13.40
2019-02-25T18:20:43.044Z,11.83
2019-02-25T18:23:17.132Z,11.60
2019-02-25T18:25:50.707Z,11.70
2019-02-25T18:28:24.223Z,11.23
2019-02-25T18:30:59.852Z,10.87
2019-02-25T18:33:33.424Z,11.37
2019-02-25T18:36:08.753Z,12.10
2019-02-25T18:38:44.111Z,11.53
2019-02-25T18:41:17.454Z,10.73
2019-02-25T18:43:51.504Z,10.10
2019-02-25T18:46:27.576Z,9.77
2019-02-25T18:49:02.654Z,9.77
2019-02-25T18:51:37.443Z,10.17
2019-02-25T18:54:11.753Z,10.20
2019-02-25T18:56:45.182Z,11.20
2019-02-25T18:59:20.332Z,10.00
2019-02-25T19:01:54.135Z,10.07
2019-02-25T19:04:27.945Z,10.93
2019-02-25T19:07:02.497Z,10.40
2019-02-25T19:09:36.892Z,10.57
2019-02-25T19:12:10.316Z,10.90
2019-02-25T19:14:45.459Z,10.23
2019-02-25T19:17:20.629Z,11.00
2019-02-25T19:19:54.176Z,12.37
2019-02-25T19:22:29.312Z,12.73
2019-02-25T19:25:04.033Z,11.60
2019-02-25T19:27:38.129Z,10.67
2019-02-25T19:30:17.420Z,12.27
2019-02-25T19:32:49.656Z,11.93
2019-02-25T19:35:25.823Z,11.50
2019-02-25T19:38:01.226Z,11.17
2019-02-25T19:40:34.029Z,11.60
2019-02-25T19:43:08.004Z,10.87
2019-02-25T19:45:43.288Z,11.20
2019-02-25T19:48:16.839Z,11.87
2019-02-25T19:50:51.581Z,11.57
2019-02-25T19:53:25.507Z,11.67
2019-02-25T19:55:59.020Z,11.47
2019-02-25T19:58:34.166Z,11.13
2019-02-25T20:01:08.981Z,11.30
2019-02-25T20:03:45.188Z,11.47
2019-02-25T20:06:19.186Z,12.23
2019-02-25T20:08:55.447Z,11.73
2019-02-25T20:11:28.424Z,11.80
2019-02-25T20:14:02.352Z,11.57
2019-02-25T20:16:35.788Z,12.50
2019-02-25T20:19:09.212Z,13.50
2019-02-25T20:21:42.718Z,14.83
2019-02-25T20:24:17.281Z,14.23
2019-02-25T20:26:53.975Z,12.60
2019-02-25T20:29:26.903Z,11.53
2019-02-25T20:32:00.340Z,11.97
2019-02-25T20:34:34.781Z,12.70
2019-02-25T20:37:08.476Z,12.63
2019-02-25T20:39:42.993Z,12.83
2019-02-25T20:42:21.396Z,11.70
2019-02-25T20:44:53.452Z,12.10
2019-02-25T20:47:28.618Z,12.10
2019-02-25T20:50:03.717Z,11.83
2019-02-25T20:52:38.842Z,12.30
2019-02-25T20:55:13.377Z,12.03
2019-02-25T20:57:47.108Z,11.87
2019-02-25T21:00:24.622Z,11.53
2019-02-25T21:02:58.059Z,20.50
2019-02-25T21:05:31.483Z,39.57
2019-02-25T21:08:04.924Z,14.67
2019-02-25T21:10:38.524Z,24.93
2019-02-25T21:13:11.964Z,27.87
2019-02-25T21:15:45.501Z,39.23
2019-02-25T21:18:20.331Z,27.27
2019-02-25T21:20:54.152Z,25.90
2019-02-25T21:23:27.586Z,18.87
2019-02-25T21:26:04.329Z,14.63
2019-02-25T21:28:38.065Z,14.07
2019-02-25T21:31:13.939Z,12.80
2019-02-25T21:33:49.846Z,11.30
2019-02-25T21:36:21.600Z,13.37
2019-02-25T21:38:56.068Z,12.20
2019-02-25T21:41:29.740Z,11.50
2019-02-25T21:44:03.256Z,12.17
2019-02-25T21:46:36.678Z,12.40
2019-02-25T21:49:10.115Z,12.50
2019-02-25T21:51:43.771Z,13.17
2019-02-25T21:54:18.716Z,12.53
2019-02-25T21:56:52.141Z,11.93
2019-02-25T21:59:25.569Z,12.10
2019-02-25T22:01:59.338Z,11.73
2019-02-25T22:04:34.173Z,11.23
2019-02-25T22:07:07.592Z,12.93
2019-02-25T22:09:41.919Z,13.43
2019-02-25T22:12:16.180Z,12.50
2019-02-25T22:14:49.935Z,11.43
2019-02-25T22:17:24.764Z,10.80
2019-02-25T22:19:58.200Z,10.20
2019-02-25T22:22:33.148Z,11.10
2019-02-25T22:25:14.054Z,12.17
2019-02-25T22:27:47.743Z,11.87
2019-02-25T22:30:21.172Z,10.80
2019-02-25T22:32:54.592Z,11.27
2019-02-25T22:35:28.033Z,12.67
2019-02-25T22:38:02.816Z,14.07
2019-02-25T22:40:37.149Z,14.43
2019-02-25T22:43:12.206Z,13.30
2019-02-25T22:45:46.700Z,13.77
2019-02-25T22:48:21.539Z,13.37
2019-02-25T22:50:55.940Z,13.17
2019-02-25T22:53:30.452Z,12.37
2019-02-25T22:56:03.948Z,12.03
2019-02-25T22:58:39.066Z,12.80
2019-02-25T23:01:17.528Z,12.53
2019-02-25T23:03:52.156Z,12.37
2019-02-25T23:06:25.265Z,12.40
2019-02-25T23:08:58.844Z,12.07
2019-02-25T23:11:32.284Z,12.30
2019-02-25T23:14:07.733Z,13.47
2019-02-25T23:16:41.596Z,12.27
2019-02-25T23:19:18.038Z,12.37
2019-02-25T23:21:51.245Z,12.33
2019-02-25T23:24:28.013Z,12.07
2019-02-25T23:26:59.836Z,12.63
2019-02-25T23:29:33.264Z,12.47
2019-02-25T23:32:06.717Z,12.70
2019-02-25T23:34:42.450Z,13.10
2019-02-25T23:37:17.000Z,11.93
2019-02-25T23:39:50.429Z,12.27
2019-02-25T23:42:23.876Z,12.70
2019-02-25T23:44:57.292Z,12.63
2019-02-25T23:47:31.652Z,13.33
2019-02-25T23:50:10.533Z,12.20
2019-02-25T23:52:43.572Z,12.07
2019-02-25T23:55:19.083Z,12.20
2019-02-25T23:57:52.160Z,11.20
